Aérodrome :
LOGIN :

S'inscrire | Disclaimer

   EN    FR    IT 

 










Légende :    VFR   VFR Marginal   IFR   IFR Intensif   IFR Très Intensif
Visi : 
Plafond : 
>= 8 km
>= 3000ft
5 à 8 km
1000 à 3000 ft
1500m à 5 km
500 à 1000 ft
800 à 1500m
200 à 500 ft
< 800m
< 200 ft
Symboles :   Orages  Brouillard  Fortes neiges  Fortes précipitations  Vent > 20 kt
SIGMETs :   Divers  Orages  Givrage  Turbulence  Onde Orograph.  Cendres Volcan.







- Altitude de l'aérodrome : 12 ft
- Code IATA : NCE
- Voir les cartes d'approche


LFMN - Nice

DERNIER METAR :
  • 201800Z 11010KT 9999 FEW083 24/16 Q1020 NOSIG

METARs EXPIRÉS :
  • 201730Z 10012KT 9999 FEW083 24/15 Q1020 NOSIG
  • 201700Z 09014KT 9999 FEW083 24/16 Q1020 NOSIG
  • 201630Z 08014KT 9999 FEW083 24/15 Q1020 NOSIG
  • 201600Z 09013KT 9999 FEW050 24/15 Q1020 NOSIG
  • 201530Z 10012KT 9999 FEW040 25/16 Q1021 NOSIG

TAF TAF LFMN
Valide du 20 à 15h jusqu'au 21 à 21h UTC


201400Z 2015/2121 10014KT CAVOK
TEMPO 2019/2109 33010KT
TEMPO 2111/2118 09024KT
PROB40
TEMPO 2118/2121 4000 RA OVC060
ATIS : +33 4 93 17 21 16
Pas de NOTAMs connus pour ce terrain.



MET'MAP, la Météo Aéronautique d'un coup d'oeil ! - Copyright ORBIFLY Décembre 2007 - Disclaimer

ORBIFLY MET'MAP TEAM :

Programmation & Développement : Alexandra Zaïnal
Conception & Développement : Baudouin d'Aumeries
Co-Programmation & Développement : Marc-Olivier Méhu
Soutien technique & logistique : Manuel Goepfert

Contact : metmap@orbifly.com




SOURCES & CREDITS :

   NOAA